createdAt,value
2018-12-31T00:00:08.782Z,93.32
2018-12-31T00:01:07.777Z,93.53
2018-12-31T00:02:07.888Z,93.63
2018-12-31T00:03:08.009Z,93.68
2018-12-31T00:04:08.094Z,93.63
2018-12-31T00:05:08.290Z,93.37
2018-12-31T00:06:08.336Z,93.53
2018-12-31T00:07:08.491Z,93.53
2018-12-31T00:08:08.545Z,93.63
2018-12-31T00:09:08.633Z,93.63
2018-12-31T00:10:08.776Z,93.68
2018-12-31T00:11:08.873Z,93.74
2018-12-31T00:12:09.004Z,93.57
2018-12-31T00:13:09.163Z,93.99
2018-12-31T00:14:09.232Z,94.20
2018-12-31T00:15:09.304Z,94.20
2018-12-31T00:16:09.452Z,94.09
2018-12-31T00:17:09.525Z,94.20
2018-12-31T00:18:09.620Z,94.30
2018-12-31T00:19:09.735Z,93.88
2018-12-31T00:20:09.833Z,94.20
2018-12-31T00:21:10.029Z,94.40
2018-12-31T00:22:10.054Z,94.15
2018-12-31T00:23:10.150Z,94.05
2018-12-31T00:24:10.263Z,94.09
2018-12-31T00:25:10.366Z,94.20
2018-12-31T00:26:10.472Z,94.20
2018-12-31T00:27:11.573Z,93.99
2018-12-31T00:28:10.700Z,94.15
2018-12-31T00:29:10.881Z,94.05
2018-12-31T00:30:10.914Z,94.09
2018-12-31T00:31:10.996Z,94.09
2018-12-31T00:32:11.158Z,93.95
2018-12-31T00:33:11.275Z,93.68
2018-12-31T00:34:11.341Z,94.15
2018-12-31T00:35:11.471Z,93.84
2018-12-31T00:36:11.565Z,94.26
2018-12-31T00:37:11.756Z,94.30
2018-12-31T00:38:11.802Z,94.15
2018-12-31T00:39:11.885Z,94.05
2018-12-31T00:40:12.018Z,93.99
2018-12-31T00:41:12.106Z,94.09
2018-12-31T00:42:12.261Z,94.26
2018-12-31T00:43:12.304Z,93.88
2018-12-31T00:44:12.433Z,93.68
2018-12-31T00:45:12.582Z,94.05
2018-12-31T00:46:12.746Z,95.13
2018-12-31T00:47:12.786Z,94.71
2018-12-31T00:48:12.864Z,94.51
2018-12-31T00:49:12.970Z,94.51
2018-12-31T00:50:13.095Z,94.57
2018-12-31T00:51:13.182Z,94.40
2018-12-31T00:52:13.602Z,94.82
2018-12-31T00:53:13.379Z,94.40
2018-12-31T00:54:13.619Z,94.40
2018-12-31T00:55:13.643Z,94.26
2018-12-31T00:56:13.733Z,94.30
2018-12-31T00:57:13.861Z,94.46
2018-12-31T00:58:13.937Z,94.05
2018-12-31T00:59:14.059Z,94.46
2018-12-31T01:00:14.223Z,94.46
2018-12-31T01:01:14.274Z,94.46
2018-12-31T01:02:14.439Z,95.29
2018-12-31T01:03:14.456Z,94.05
2018-12-31T01:04:14.570Z,94.36
2018-12-31T01:05:14.734Z,94.15
2018-12-31T01:06:14.800Z,94.46
2018-12-31T01:07:14.908Z,94.36
2018-12-31T01:08:15.034Z,94.46
2018-12-31T01:09:15.141Z,94.36
2018-12-31T01:10:15.321Z,95.09
2018-12-31T01:11:15.339Z,94.46
2018-12-31T01:12:15.447Z,95.19
2018-12-31T01:13:15.571Z,94.46
2018-12-31T01:14:15.661Z,95.29
2018-12-31T01:15:15.825Z,94.36
2018-12-31T01:16:15.865Z,94.57
2018-12-31T01:17:15.990Z,94.67
2018-12-31T01:18:16.143Z,94.46
2018-12-31T01:19:16.263Z,94.46
2018-12-31T01:20:16.590Z,94.46
2018-12-31T01:21:16.406Z,94.15
2018-12-31T01:22:16.525Z,94.57
2018-12-31T01:23:16.672Z,94.46
2018-12-31T01:24:16.740Z,94.26
2018-12-31T01:25:16.868Z,94.67
2018-12-31T01:26:16.964Z,94.78
2018-12-31T01:27:17.162Z,94.61
2018-12-31T01:28:17.216Z,95.50
2018-12-31T01:29:17.279Z,95.50
2018-12-31T01:30:17.407Z,95.50
2018-12-31T01:31:17.473Z,95.61
2018-12-31T01:32:17.580Z,94.67
2018-12-31T01:33:17.749Z,94.46
2018-12-31T01:34:17.807Z,95.50
2018-12-31T01:35:18.026Z,94.78
2018-12-31T01:36:18.003Z,95.61
2018-12-31T01:37:18.114Z,95.61
2018-12-31T01:38:18.281Z,95.50
2018-12-31T01:39:18.334Z,95.40
2018-12-31T01:40:18.465Z,95.19
2018-12-31T01:41:18.557Z,95.19
2018-12-31T01:42:18.663Z,95.40
2018-12-31T01:43:18.831Z,95.61
2018-12-31T01:44:18.863Z,95.61
2018-12-31T01:45:18.992Z,95.50
2018-12-31T01:46:19.083Z,95.40
2018-12-31T01:47:19.189Z,95.61
2018-12-31T01:48:19.346Z,95.50
2018-12-31T01:49:19.390Z,95.50
2018-12-31T01:50:19.525Z,95.61
2018-12-31T01:51:19.686Z,94.98
2018-12-31T01:52:19.715Z,94.67
2018-12-31T01:53:19.888Z,94.57
2018-12-31T01:54:19.928Z,94.57
2018-12-31T01:55:20.068Z,94.88
2018-12-31T01:56:20.174Z,94.67
2018-12-31T01:57:20.277Z,95.40
2018-12-31T01:58:20.452Z,95.50
2018-12-31T01:59:20.509Z,95.50
2018-12-31T02:00:20.672Z,95.61
2018-12-31T02:01:20.725Z,95.61
2018-12-31T02:02:20.814Z,95.50
2018-12-31T02:03:20.940Z,95.61
2018-12-31T02:04:21.027Z,95.50
2018-12-31T02:05:21.123Z,95.29
2018-12-31T02:06:21.258Z,95.29
2018-12-31T02:07:21.353Z,95.29
2018-12-31T02:08:21.618Z,95.50
2018-12-31T02:09:21.556Z,95.19
2018-12-31T02:10:21.651Z,95.29
2018-12-31T02:11:21.818Z,95.19
2018-12-31T02:12:21.924Z,95.19
2018-12-31T02:13:22.045Z,95.50
2018-12-31T02:14:22.137Z,95.19
2018-12-31T02:15:22.238Z,95.40
2018-12-31T02:16:22.439Z,95.19
2018-12-31T02:17:22.461Z,95.40
2018-12-31T02:18:22.606Z,95.29
2018-12-31T02:19:22.679Z,94.78
2018-12-31T02:20:22.788Z,95.19
2018-12-31T02:21:22.977Z,95.50
2018-12-31T02:22:22.986Z,95.40
2018-12-31T02:23:23.158Z,95.29
2018-12-31T02:24:23.274Z,95.40
2018-12-31T02:25:23.305Z,95.40
2018-12-31T02:26:23.438Z,95.29
2018-12-31T02:27:23.597Z,95.19
2018-12-31T02:28:23.647Z,95.19
2018-12-31T02:29:23.740Z,95.40
2018-12-31T02:30:23.845Z,95.19
2018-12-31T02:31:23.978Z,95.19
2018-12-31T02:32:24.104Z,95.40
2018-12-31T02:33:24.193Z,95.40
2018-12-31T02:34:24.282Z,95.29
2018-12-31T02:35:24.390Z,95.29
2018-12-31T02:36:24.520Z,95.29
2018-12-31T02:37:24.607Z,95.50
2018-12-31T02:38:24.731Z,95.19
2018-12-31T02:39:24.805Z,95.29
2018-12-31T02:40:24.935Z,95.19
2018-12-31T02:41:25.185Z,95.40
2018-12-31T02:42:25.173Z,95.36
2018-12-31T02:43:25.294Z,95.50
2018-12-31T02:44:25.339Z,94.46
2018-12-31T02:45:25.470Z,94.57
2018-12-31T02:46:25.580Z,95.36
2018-12-31T02:47:25.676Z,95.50
2018-12-31T02:48:25.816Z,95.40
2018-12-31T02:49:25.993Z,95.50
2018-12-31T02:50:25.998Z,95.36
2018-12-31T02:51:26.128Z,95.46
2018-12-31T02:52:26.228Z,94.73
2018-12-31T02:53:26.342Z,95.46
2018-12-31T02:54:26.422Z,95.56
2018-12-31T02:55:26.525Z,95.36
2018-12-31T02:56:26.664Z,94.36
2018-12-31T02:57:27.013Z,94.32
2018-12-31T02:58:27.117Z,94.53
2018-12-31T02:59:26.965Z,95.46
2018-12-31T03:00:27.050Z,95.46
2018-12-31T03:01:27.177Z,95.56
2018-12-31T03:02:27.314Z,94.84
2018-12-31T03:03:27.400Z,95.46
2018-12-31T03:04:27.530Z,95.15
2018-12-31T03:05:27.644Z,94.98
2018-12-31T03:06:27.691Z,95.25
2018-12-31T03:07:27.809Z,95.46
2018-12-31T03:08:27.941Z,95.46
2018-12-31T03:09:28.077Z,95.15
2018-12-31T03:10:28.156Z,95.46
2018-12-31T03:11:28.280Z,95.56
2018-12-31T03:12:28.357Z,95.46
2018-12-31T03:13:28.479Z,95.56
2018-12-31T03:14:28.751Z,95.46
2018-12-31T03:15:28.717Z,95.46
2018-12-31T03:16:28.843Z,95.36
2018-12-31T03:17:28.998Z,95.36
2018-12-31T03:18:29.040Z,95.36
2018-12-31T03:19:29.213Z,95.40
2018-12-31T03:20:29.303Z,95.46
2018-12-31T03:21:29.418Z,95.36
2018-12-31T03:22:29.638Z,95.15
2018-12-31T03:23:29.617Z,95.25
2018-12-31T03:24:29.767Z,95.25
2018-12-31T03:25:29.832Z,95.15
2018-12-31T03:26:29.959Z,95.46
2018-12-31T03:27:30.065Z,94.94
2018-12-31T03:28:30.150Z,94.88
2018-12-31T03:29:30.317Z,95.25
2018-12-31T03:30:30.452Z,94.84
2018-12-31T03:31:30.505Z,95.25
2018-12-31T03:32:30.604Z,95.29
2018-12-31T03:33:30.691Z,95.25
2018-12-31T03:34:30.831Z,95.46
2018-12-31T03:35:30.921Z,95.25
2018-12-31T03:36:31.045Z,95.29
2018-12-31T03:37:31.138Z,95.25
2018-12-31T03:38:31.272Z,95.25
2018-12-31T03:39:31.368Z,95.56
2018-12-31T03:40:31.436Z,95.29
2018-12-31T03:41:31.596Z,95.36
2018-12-31T03:42:31.675Z,95.19
2018-12-31T03:43:31.769Z,95.19
2018-12-31T03:44:31.925Z,95.61
2018-12-31T03:45:31.989Z,95.81
2018-12-31T03:46:32.161Z,95.81
2018-12-31T03:47:32.263Z,95.40
2018-12-31T03:48:32.328Z,95.50
2018-12-31T03:49:32.480Z,95.71
2018-12-31T03:50:32.539Z,95.77
2018-12-31T03:51:32.653Z,95.46
2018-12-31T03:52:32.748Z,95.61
2018-12-31T03:53:32.890Z,95.81
2018-12-31T03:54:33.059Z,95.81
2018-12-31T03:55:33.228Z,95.92
2018-12-31T03:56:33.208Z,95.71
2018-12-31T03:57:33.315Z,95.61
2018-12-31T03:58:33.419Z,95.71
2018-12-31T03:59:33.574Z,95.50
2018-12-31T04:00:33.635Z,95.81
2018-12-31T04:01:33.753Z,95.81
2018-12-31T04:02:33.834Z,95.77
2018-12-31T04:03:34.039Z,95.92
2018-12-31T04:04:34.116Z,95.61
2018-12-31T04:05:34.179Z,95.71
2018-12-31T04:06:34.289Z,95.50
2018-12-31T04:07:34.380Z,95.71
2018-12-31T04:08:34.500Z,95.67
2018-12-31T04:09:35.119Z,95.61
2018-12-31T04:10:34.721Z,95.71
2018-12-31T04:11:34.939Z,95.67
2018-12-31T04:12:34.904Z,95.19
2018-12-31T04:13:35.039Z,95.61
2018-12-31T04:14:35.209Z,95.40
2018-12-31T04:15:35.270Z,95.71
2018-12-31T04:16:35.382Z,95.71
2018-12-31T04:17:35.489Z,95.71
2018-12-31T04:18:35.593Z,95.92
2018-12-31T04:19:35.782Z,95.56
2018-12-31T04:20:35.786Z,95.40
2018-12-31T04:21:35.903Z,95.56
2018-12-31T04:22:36.031Z,95.81
2018-12-31T04:23:36.141Z,95.61
2018-12-31T04:24:36.273Z,95.61
2018-12-31T04:25:36.358Z,95.71
2018-12-31T04:26:36.475Z,95.61
2018-12-31T04:27:36.639Z,95.81
2018-12-31T04:28:36.778Z,95.61
2018-12-31T04:29:36.800Z,95.81
2018-12-31T04:30:36.921Z,95.81
2018-12-31T04:31:37.018Z,95.71
2018-12-31T04:32:37.140Z,95.61
2018-12-31T04:33:37.232Z,96.23
2018-12-31T04:34:37.359Z,96.23
2018-12-31T04:35:37.460Z,96.33
2018-12-31T04:36:37.660Z,96.12
2018-12-31T04:37:37.905Z,96.12
2018-12-31T04:38:37.775Z,96.33
2018-12-31T04:39:37.900Z,96.12
2018-12-31T04:40:38.018Z,96.02
2018-12-31T04:41:38.083Z,96.19
2018-12-31T04:42:38.232Z,96.02
2018-12-31T04:43:38.323Z,95.81
2018-12-31T04:44:38.527Z,95.61
2018-12-31T04:45:38.551Z,96.12
2018-12-31T04:46:38.620Z,96.12
2018-12-31T04:47:40.674Z,96.12
2018-12-31T04:48:38.844Z,96.12
2018-12-31T04:49:38.964Z,96.12
2018-12-31T04:50:39.089Z,96.12
2018-12-31T04:51:39.172Z,96.02
2018-12-31T04:52:39.351Z,96.12
2018-12-31T04:53:39.367Z,96.12
2018-12-31T04:54:39.502Z,96.12
2018-12-31T04:55:44.188Z,96.12
2018-12-31T04:56:40.696Z,96.02
2018-12-31T04:57:39.822Z,96.23
2018-12-31T04:58:39.898Z,96.23
2018-12-31T04:59:40.035Z,96.23
2018-12-31T05:00:40.202Z,96.23
2018-12-31T05:01:40.264Z,96.12
2018-12-31T05:02:40.383Z,96.02
2018-12-31T05:03:40.455Z,96.75
2018-12-31T05:04:40.584Z,96.54
2018-12-31T05:05:40.688Z,96.44
2018-12-31T05:06:40.802Z,96.64
2018-12-31T05:07:40.922Z,96.44
2018-12-31T05:08:41.021Z,96.44
2018-12-31T05:09:41.237Z,96.44
2018-12-31T05:10:41.228Z,96.23
2018-12-31T05:11:41.349Z,96.33
2018-12-31T05:12:41.456Z,96.54
2018-12-31T05:13:41.547Z,96.44
2018-12-31T05:14:41.674Z,96.33
2018-12-31T05:15:41.749Z,96.44
2018-12-31T05:16:41.906Z,96.33
2018-12-31T05:17:42.126Z,96.64
2018-12-31T05:18:42.080Z,96.64
2018-12-31T05:19:42.173Z,97.06
2018-12-31T05:20:42.333Z,96.95
2018-12-31T05:21:42.425Z,96.95
2018-12-31T05:22:42.549Z,97.16
2018-12-31T05:23:42.642Z,97.16
2018-12-31T05:24:42.748Z,96.95
2018-12-31T05:25:42.924Z,96.75
2018-12-31T05:26:43.003Z,97.06
2018-12-31T05:27:43.096Z,96.95
2018-12-31T05:28:43.188Z,96.85
2018-12-31T05:29:43.299Z,96.95
2018-12-31T05:30:43.421Z,96.95
2018-12-31T05:31:43.530Z,96.95
2018-12-31T05:32:43.659Z,97.16
2018-12-31T05:33:43.854Z,97.16
2018-12-31T05:34:43.852Z,96.95
2018-12-31T05:35:44.003Z,97.16
2018-12-31T05:36:44.065Z,96.85
2018-12-31T05:37:44.173Z,97.16
2018-12-31T05:38:44.278Z,97.27
2018-12-31T05:39:44.390Z,97.27
2018-12-31T05:40:44.562Z,96.85
2018-12-31T05:41:44.629Z,97.27
2018-12-31T05:42:44.730Z,97.16
2018-12-31T05:43:44.821Z,96.85
2018-12-31T05:44:44.927Z,97.27
2018-12-31T05:45:45.050Z,97.27
2018-12-31T05:46:45.142Z,97.27
2018-12-31T05:47:45.299Z,97.37
2018-12-31T05:48:45.345Z,96.95
2018-12-31T05:49:45.528Z,97.27
2018-12-31T05:50:45.717Z,97.27
2018-12-31T05:51:45.683Z,97.27
2018-12-31T05:52:45.819Z,97.47
2018-12-31T05:53:45.886Z,97.47
2018-12-31T05:54:46.007Z,97.37
2018-12-31T05:55:46.127Z,97.16
2018-12-31T05:56:46.218Z,97.16
2018-12-31T05:57:46.395Z,97.12
2018-12-31T05:58:46.600Z,97.22
2018-12-31T05:59:46.540Z,97.37
2018-12-31T06:00:46.665Z,97.22
2018-12-31T06:01:46.748Z,97.16
2018-12-31T06:02:46.908Z,97.64
2018-12-31T06:03:46.978Z,97.06
2018-12-31T06:04:47.049Z,97.53
2018-12-31T06:05:47.221Z,97.85
2018-12-31T06:06:47.386Z,97.78
2018-12-31T06:07:47.411Z,97.53
2018-12-31T06:08:47.510Z,97.78
2018-12-31T06:09:47.612Z,97.68
2018-12-31T06:10:47.719Z,97.64
2018-12-31T06:11:47.825Z,97.43
2018-12-31T06:12:48.185Z,97.64
2018-12-31T06:13:48.049Z,97.64
2018-12-31T06:14:48.185Z,97.64
2018-12-31T06:15:48.238Z,98.05
2018-12-31T06:16:48.341Z,97.64
2018-12-31T06:17:48.489Z,97.64
2018-12-31T06:18:48.606Z,97.64
2018-12-31T06:19:48.688Z,97.85
2018-12-31T06:20:48.814Z,97.28
2018-12-31T06:21:48.933Z,97.43
2018-12-31T06:22:49.016Z,97.38
2018-12-31T06:23:49.232Z,97.80
2018-12-31T06:24:49.237Z,97.69
2018-12-31T06:25:49.360Z,97.59
2018-12-31T06:26:49.477Z,97.64
2018-12-31T06:27:49.545Z,97.80
2018-12-31T06:28:49.685Z,97.38
2018-12-31T06:29:49.792Z,97.95
2018-12-31T06:30:49.925Z,97.80
2018-12-31T06:31:50.181Z,97.69
2018-12-31T06:32:50.105Z,97.38
2018-12-31T06:33:50.233Z,97.49
2018-12-31T06:34:50.415Z,97.07
2018-12-31T06:35:50.466Z,97.07
2018-12-31T06:36:50.602Z,97.38
2018-12-31T06:37:50.673Z,97.28
2018-12-31T06:38:50.782Z,97.43
2018-12-31T06:39:50.998Z,97.59
2018-12-31T06:40:51.004Z,97.80
2018-12-31T06:41:51.128Z,97.38
2018-12-31T06:42:51.203Z,97.28
2018-12-31T06:43:51.312Z,97.28
2018-12-31T06:44:51.406Z,97.17
2018-12-31T06:45:51.547Z,97.90
2018-12-31T06:46:51.668Z,97.49
2018-12-31T06:47:51.771Z,97.80
2018-12-31T06:48:51.858Z,97.80
2018-12-31T06:49:51.937Z,97.59
2018-12-31T06:50:52.075Z,97.69
2018-12-31T06:51:52.184Z,97.28
2018-12-31T06:52:52.285Z,97.69
2018-12-31T06:53:52.410Z,97.59
2018-12-31T06:54:52.540Z,97.49
2018-12-31T06:55:52.656Z,97.49
2018-12-31T06:56:52.811Z,97.80
2018-12-31T06:57:52.834Z,97.59
2018-12-31T06:58:52.956Z,97.49
2018-12-31T06:59:53.051Z,97.69
2018-12-31T07:00:53.177Z,97.38
2018-12-31T07:01:53.281Z,97.80
2018-12-31T07:02:53.378Z,98.11
2018-12-31T07:03:53.518Z,97.55
2018-12-31T07:04:53.731Z,97.44
2018-12-31T07:05:53.701Z,97.55
2018-12-31T07:06:53.825Z,97.65
2018-12-31T07:07:53.916Z,97.24
2018-12-31T07:08:54.040Z,97.44
2018-12-31T07:09:54.131Z,97.34
2018-12-31T07:10:54.251Z,97.24
2018-12-31T07:11:54.370Z,97.24
2018-12-31T07:12:54.769Z,97.24
2018-12-31T07:13:54.646Z,97.24
2018-12-31T07:14:54.660Z,97.34
2018-12-31T07:15:54.783Z,97.03
2018-12-31T07:16:54.890Z,97.24
2018-12-31T07:17:54.988Z,96.92
2018-12-31T07:18:55.121Z,97.19
2018-12-31T07:19:55.213Z,97.55
2018-12-31T07:20:55.372Z,97.44
2018-12-31T07:21:55.438Z,97.13
2018-12-31T07:22:55.503Z,97.13
2018-12-31T07:23:55.645Z,97.24
2018-12-31T07:24:55.740Z,97.24
2018-12-31T07:25:55.866Z,97.24
2018-12-31T07:26:55.983Z,96.67
2018-12-31T07:27:56.060Z,97.03
2018-12-31T07:28:56.218Z,96.88
2018-12-31T07:29:56.312Z,97.03
2018-12-31T07:30:56.385Z,96.57
2018-12-31T07:31:56.487Z,97.19
2018-12-31T07:32:56.582Z,96.88
2018-12-31T07:33:56.709Z,96.36
2018-12-31T07:34:56.784Z,96.67
2018-12-31T07:35:56.960Z,96.15
2018-12-31T07:36:57.058Z,96.05
2018-12-31T07:37:57.190Z,96.05
2018-12-31T07:38:57.242Z,95.95
2018-12-31T07:39:57.321Z,95.95
2018-12-31T07:40:57.439Z,95.95
2018-12-31T07:41:57.548Z,95.84
2018-12-31T07:42:57.658Z,95.84
2018-12-31T07:43:57.781Z,95.59
2018-12-31T07:44:57.876Z,95.53
2018-12-31T07:45:58.088Z,95.95
2018-12-31T07:46:58.128Z,95.95
2018-12-31T07:47:58.206Z,95.84
2018-12-31T07:48:58.326Z,95.90
2018-12-31T07:49:58.399Z,95.80
2018-12-31T07:50:58.507Z,95.84
2018-12-31T07:51:58.685Z,95.22
2018-12-31T07:52:58.746Z,95.53
2018-12-31T07:53:58.961Z,95.59
2018-12-31T07:54:58.952Z,95.80
2018-12-31T07:55:59.045Z,95.43
2018-12-31T07:56:59.191Z,95.49
2018-12-31T07:57:59.273Z,95.18
2018-12-31T07:58:59.397Z,95.49
2018-12-31T07:59:59.489Z,95.49
2018-12-31T08:00:59.594Z,95.53
2018-12-31T08:01:59.767Z,95.53
2018-12-31T08:02:59.792Z,95.39
2018-12-31T08:03:59.923Z,95.59
2018-12-31T08:05:00.013Z,95.39
2018-12-31T08:06:00.122Z,94.97
2018-12-31T08:07:00.278Z,95.07
2018-12-31T08:08:00.316Z,94.66
2018-12-31T08:09:00.455Z,95.07
2018-12-31T08:10:00.578Z,94.76
2018-12-31T08:11:00.664Z,95.03
2018-12-31T08:12:00.822Z,95.39
2018-12-31T08:13:00.868Z,95.24
2018-12-31T08:14:00.990Z,95.14
2018-12-31T08:15:01.092Z,94.41
2018-12-31T08:16:01.208Z,95.24
2018-12-31T08:17:01.361Z,95.24
2018-12-31T08:18:01.464Z,93.58
2018-12-31T08:19:01.624Z,93.79
2018-12-31T08:20:01.715Z,93.58
2018-12-31T08:21:01.739Z,93.48
2018-12-31T08:22:01.865Z,94.41
2018-12-31T08:23:01.962Z,94.20
2018-12-31T08:24:02.080Z,94.10
2018-12-31T08:25:02.153Z,93.99
2018-12-31T08:26:02.274Z,93.43
2018-12-31T08:27:02.491Z,93.54
2018-12-31T08:28:02.486Z,93.33
2018-12-31T08:29:02.588Z,93.23
2018-12-31T08:30:02.699Z,93.23
2018-12-31T08:31:02.822Z,93.23
2018-12-31T08:32:02.975Z,93.33
2018-12-31T08:33:03.070Z,93.02
2018-12-31T08:34:03.165Z,93.23
2018-12-31T08:35:03.299Z,93.23
2018-12-31T08:36:03.342Z,93.64
2018-12-31T08:37:03.469Z,92.61
2018-12-31T08:38:03.593Z,92.81
2018-12-31T08:39:03.680Z,92.81
2018-12-31T08:40:03.775Z,93.33
2018-12-31T08:41:03.875Z,92.61
2018-12-31T08:42:04.008Z,93.64
2018-12-31T08:43:04.181Z,93.33
2018-12-31T08:44:04.186Z,93.58
2018-12-31T08:45:04.301Z,93.06
2018-12-31T08:46:04.390Z,93.23
2018-12-31T08:47:04.521Z,93.54
2018-12-31T08:48:04.650Z,92.19
2018-12-31T08:49:04.722Z,92.30
2018-12-31T08:50:04.859Z,92.30
2018-12-31T08:51:04.995Z,92.30
2018-12-31T08:52:05.099Z,92.30
2018-12-31T08:53:05.208Z,92.71
2018-12-31T08:54:05.280Z,91.63
2018-12-31T08:55:05.415Z,91.63
2018-12-31T08:56:05.521Z,91.42
2018-12-31T08:57:05.644Z,91.11
2018-12-31T08:58:05.913Z,90.56
2018-12-31T08:59:05.850Z,90.25
2018-12-31T09:00:06.085Z,90.35
2018-12-31T09:01:06.057Z,90.25
2018-12-31T09:02:06.164Z,90.04
2018-12-31T09:03:06.275Z,89.73
2018-12-31T09:04:06.377Z,89.79
2018-12-31T09:05:06.501Z,89.38
2018-12-31T09:06:06.585Z,89.17
2018-12-31T09:07:06.720Z,89.01
2018-12-31T09:08:06.922Z,88.55
2018-12-31T09:09:06.915Z,88.45
2018-12-31T09:10:07.042Z,88.76
2018-12-31T09:11:07.122Z,88.55
2018-12-31T09:12:07.254Z,88.45
2018-12-31T09:13:07.320Z,88.76
2018-12-31T09:14:07.438Z,87.52
2018-12-31T09:15:07.568Z,88.04
2018-12-31T09:16:07.729Z,87.93
2018-12-31T09:17:07.764Z,87.21
2018-12-31T09:18:07.866Z,87.21
2018-12-31T09:19:07.984Z,87.10
2018-12-31T09:20:08.081Z,87.21
2018-12-31T09:21:08.185Z,87.41
2018-12-31T09:22:08.309Z,87.52
2018-12-31T09:23:08.430Z,87.46
2018-12-31T09:24:08.560Z,88.39
2018-12-31T09:25:08.674Z,88.65
2018-12-31T09:26:08.712Z,88.39
2018-12-31T09:27:08.890Z,87.97
2018-12-31T09:28:08.983Z,87.93
2018-12-31T09:29:09.056Z,87.97
2018-12-31T09:30:09.420Z,88.28
2018-12-31T09:31:09.275Z,87.56
2018-12-31T09:32:09.417Z,88.39
2018-12-31T09:33:09.597Z,88.70
2018-12-31T09:34:09.593Z,88.70
2018-12-31T09:35:09.720Z,87.97
2018-12-31T09:36:09.811Z,88.59
2018-12-31T09:37:09.920Z,88.86
2018-12-31T09:38:10.058Z,88.70
2018-12-31T09:39:10.135Z,88.34
2018-12-31T09:40:10.262Z,88.76
2018-12-31T09:41:10.446Z,88.55
2018-12-31T09:42:10.479Z,87.41
2018-12-31T09:43:10.589Z,88.14
2018-12-31T09:44:10.713Z,87.58
2018-12-31T09:45:10.816Z,86.86
2018-12-31T09:46:10.911Z,86.86
2018-12-31T09:47:11.004Z,87.37
2018-12-31T09:48:11.137Z,87.48
2018-12-31T09:49:11.319Z,87.27
2018-12-31T09:50:11.340Z,86.76
2018-12-31T09:51:11.438Z,86.96
2018-12-31T09:52:11.543Z,86.76
2018-12-31T09:53:12.608Z,86.96
2018-12-31T09:54:11.766Z,86.76
2018-12-31T09:55:11.900Z,86.96
2018-12-31T09:56:11.995Z,86.86
2018-12-31T09:57:12.137Z,86.86
2018-12-31T09:58:12.231Z,86.55
2018-12-31T09:59:12.308Z,87.07
2018-12-31T10:00:12.445Z,86.44
2018-12-31T10:01:12.533Z,86.86
2018-12-31T10:02:12.640Z,86.24
2018-12-31T10:03:12.771Z,86.34
2018-12-31T10:04:12.848Z,86.30
2018-12-31T10:05:13.003Z,86.10
2018-12-31T10:06:13.078Z,85.99
2018-12-31T10:07:13.179Z,85.89
2018-12-31T10:08:13.301Z,84.86
2018-12-31T10:09:13.391Z,85.23
2018-12-31T10:10:13.517Z,84.61
2018-12-31T10:11:13.591Z,84.81
2018-12-31T10:12:13.766Z,84.51
2018-12-31T10:13:13.871Z,84.09
2018-12-31T10:14:14.038Z,83.99
2018-12-31T10:15:14.046Z,83.54
2018-12-31T10:16:14.147Z,83.54
2018-12-31T10:17:14.267Z,83.75
2018-12-31T10:18:14.392Z,82.10
2018-12-31T10:19:14.487Z,82.51
2018-12-31T10:20:14.639Z,83.03
2018-12-31T10:21:16.091Z,84.16
2018-12-31T10:22:14.906Z,82.61
2018-12-31T10:23:14.930Z,82.47
2018-12-31T10:24:15.033Z,82.61
2018-12-31T10:25:15.171Z,82.30
2018-12-31T10:26:15.805Z,82.71
2018-12-31T10:27:15.346Z,81.79
2018-12-31T10:28:15.485Z,82.92
2018-12-31T10:29:15.587Z,82.10
2018-12-31T10:30:15.779Z,82.10
2018-12-31T10:31:15.784Z,82.40
2018-12-31T10:32:15.876Z,82.16
2018-12-31T10:33:16.017Z,82.30
2018-12-31T10:34:16.107Z,84.33
2018-12-31T10:35:16.231Z,81.85
2018-12-31T10:36:16.333Z,85.05
2018-12-31T10:37:16.433Z,81.03
2018-12-31T10:38:16.577Z,80.51
2018-12-31T10:39:16.623Z,80.82
2018-12-31T10:40:16.758Z,79.96
2018-12-31T10:41:16.856Z,79.24
2018-12-31T10:42:16.961Z,79.41
2018-12-31T10:43:17.098Z,79.10
2018-12-31T10:44:17.166Z,79.24
2018-12-31T10:45:17.307Z,80.06
2018-12-31T10:46:17.440Z,80.27
2018-12-31T10:47:17.581Z,80.16
2018-12-31T10:48:17.633Z,80.37
2018-12-31T10:49:17.709Z,80.27
2018-12-31T10:50:17.846Z,80.62
2018-12-31T10:51:17.967Z,79.79
2018-12-31T10:52:18.047Z,80.51
2018-12-31T10:53:18.172Z,80.62
2018-12-31T10:54:18.294Z,80.82
2018-12-31T10:55:18.463Z,81.03
2018-12-31T10:56:18.487Z,81.79
2018-12-31T10:57:18.586Z,81.99
2018-12-31T10:58:18.706Z,81.89
2018-12-31T10:59:18.793Z,81.79
2018-12-31T11:00:18.888Z,81.85
2018-12-31T11:01:19.038Z,81.68
2018-12-31T11:02:19.144Z,82.20
2018-12-31T11:03:19.350Z,81.68
2018-12-31T11:04:19.346Z,81.85
2018-12-31T11:05:19.444Z,81.23
2018-12-31T11:06:19.614Z,81.03
2018-12-31T11:07:19.677Z,81.34
2018-12-31T11:08:20.026Z,80.93
2018-12-31T11:09:19.883Z,80.51
2018-12-31T11:10:19.990Z,81.96
2018-12-31T11:11:20.155Z,81.92
2018-12-31T11:12:20.191Z,81.81
2018-12-31T11:13:20.324Z,81.20
2018-12-31T11:14:20.414Z,80.27
2018-12-31T11:15:20.527Z,79.41
2018-12-31T11:16:20.659Z,80.44
2018-12-31T11:17:20.725Z,79.30
2018-12-31T11:18:20.864Z,78.28
2018-12-31T11:19:21.014Z,78.17
2018-12-31T11:20:21.064Z,78.07
2018-12-31T11:21:25.849Z,77.76
2018-12-31T11:22:21.294Z,78.17
2018-12-31T11:23:21.388Z,77.86
2018-12-31T11:24:21.503Z,77.55
2018-12-31T11:25:21.624Z,77.35
2018-12-31T11:26:21.751Z,78.52
2018-12-31T11:27:21.868Z,78.21
2018-12-31T11:28:22.017Z,77.90
2018-12-31T11:29:22.055Z,78.31
2018-12-31T11:30:22.162Z,78.62
2018-12-31T11:31:22.291Z,78.62
2018-12-31T11:32:22.390Z,79.38
2018-12-31T11:33:22.504Z,78.93
2018-12-31T11:34:22.577Z,78.21
2018-12-31T11:35:22.689Z,78.83
2018-12-31T11:36:22.944Z,77.69
2018-12-31T11:37:22.946Z,77.48
2018-12-31T11:38:23.029Z,75.73
2018-12-31T11:39:23.141Z,76.35
2018-12-31T11:40:23.251Z,76.66
2018-12-31T11:41:23.367Z,76.66
2018-12-31T11:42:23.468Z,76.87
2018-12-31T11:43:23.587Z,77.35
2018-12-31T11:44:23.708Z,76.35
2018-12-31T11:45:23.770Z,77.25
2018-12-31T11:46:23.914Z,76.56
2018-12-31T11:47:24.013Z,76.56
2018-12-31T11:48:24.154Z,77.08
2018-12-31T11:49:24.215Z,78.41
2018-12-31T11:50:24.312Z,78.38
2018-12-31T11:51:24.440Z,77.59
2018-12-31T11:52:24.630Z,78.41
2018-12-31T11:53:24.651Z,78.48
2018-12-31T11:54:24.746Z,78.72
2018-12-31T11:55:24.856Z,78.28
2018-12-31T11:56:24.960Z,78.28
2018-12-31T11:57:25.098Z,78.58
2018-12-31T11:58:25.191Z,78.58
2018-12-31T11:59:25.288Z,78.17
2018-12-31T12:00:25.434Z,77.97
2018-12-31T12:01:25.552Z,77.97
2018-12-31T12:02:25.603Z,77.86
2018-12-31T12:03:25.748Z,77.55
2018-12-31T12:04:25.831Z,78.17
2018-12-31T12:05:25.934Z,77.25
2018-12-31T12:06:26.061Z,77.55
2018-12-31T12:07:26.146Z,76.93
2018-12-31T12:08:26.289Z,77.14
2018-12-31T12:09:26.472Z,77.76
2018-12-31T12:10:26.511Z,77.55
2018-12-31T12:11:26.606Z,77.25
2018-12-31T12:12:26.681Z,77.38
2018-12-31T12:13:26.790Z,77.35
2018-12-31T12:14:26.932Z,77.35
2018-12-31T12:15:27.368Z,77.45
2018-12-31T12:16:27.165Z,77.76
2018-12-31T12:17:27.367Z,78.17
2018-12-31T12:18:27.367Z,77.86
2018-12-31T12:19:27.502Z,78.69
2018-12-31T12:20:27.609Z,78.79
2018-12-31T12:21:27.733Z,78.28
2018-12-31T12:22:27.822Z,78.41
2018-12-31T12:23:27.927Z,78.31
2018-12-31T12:24:28.042Z,78.07
2018-12-31T12:25:28.210Z,78.48
2018-12-31T12:26:28.259Z,78.48
2018-12-31T12:27:28.385Z,78.69
2018-12-31T12:28:28.469Z,78.48
2018-12-31T12:29:28.570Z,78.17
2018-12-31T12:30:28.677Z,78.03
2018-12-31T12:31:28.816Z,78.14
2018-12-31T12:32:28.910Z,77.72
2018-12-31T12:33:29.123Z,77.42
2018-12-31T12:34:29.119Z,76.79
2018-12-31T12:35:29.210Z,76.59
2018-12-31T12:36:29.340Z,76.86
2018-12-31T12:37:29.450Z,76.76
2018-12-31T12:38:29.577Z,76.25
2018-12-31T12:39:29.703Z,77.21
2018-12-31T12:40:29.773Z,76.97
2018-12-31T12:41:29.917Z,76.97
2018-12-31T12:42:30.029Z,77.17
2018-12-31T12:43:30.115Z,77.38
2018-12-31T12:44:30.231Z,76.70
2018-12-31T12:45:30.321Z,77.17
2018-12-31T12:46:30.430Z,76.66
2018-12-31T12:47:30.766Z,77.00
2018-12-31T12:48:30.920Z,77.83
2018-12-31T12:49:31.026Z,77.62
2018-12-31T12:50:31.240Z,78.24
2018-12-31T12:51:31.217Z,78.41
2018-12-31T12:52:31.323Z,77.69
2018-12-31T12:53:31.448Z,77.69